< < Back
Terminal Aerodrome Forecast


Current Version              Previous Versions:   1  2  3  4  5  6  7  8  9  

Terminal Aerodrome Forecast

948
FTUS44 KMOB 060520
TAFPNS
TAF
KPNS 060520Z 0606/0706 35014G23KT P6SM BKN100
     FM061800 35010KT P6SM SKC=



Latest METAR

455
SAUS70 KWBC 060658
MTRPNS
METAR KPNS 060653Z AUTO 36011G20KT 10SM FEW110 02/M03 A3035 RMK AO2
SLP280 T00171033


USA.gov is the U.S. government's official web portal to all federal, state and local government web resources and services.